Time;durP1;ratioP1;P1;durP2;ratioP2;P2;SDS_P1;SDS_P2;PMS_P1;PMS_P2;Temp;Humidity;BMP_temperature;BMP_pressure;BME280_temperature;BME280_humidity;BME280_pressure;Samples;Min_cycle;Max_cycle;Signal;HPM_P1;HPM_P2
2023/05/08 00:01:29;;;;;;;17.48;15.13;;;;;;;13.61;71.88;101858.16;4822623;29;20035;-84
2023/05/08 00:03:55;;;;;;;18.65;15.02;;;;;;;13.61;71.42;101858.16;4820520;29;20057;-85
2023/05/08 00:06:20;;;;;;;18.55;15.30;;;;;;;13.58;71.12;101858.56;4823383;29;20424;-84
2023/05/08 00:08:46;;;;;;;17.55;14.98;;;;;;;13.54;71.38;101859.97;4822543;29;20058;-84
2023/05/08 00:11:11;;;;;;;17.48;14.48;;;;;;;13.55;71.28;101862.47;4832934;29;20052;-85
2023/05/08 00:13:36;;;;;;;16.92;13.23;;;;;;;13.54;71.22;101857.28;4826263;29;20472;-85
2023/05/08 00:16:02;;;;;;;17.63;15.52;;;;;;;13.46;71.31;101856.34;4819055;29;20040;-85
2023/05/08 00:18:27;;;;;;;18.23;14.57;;;;;;;13.48;71.34;101858.88;4818272;29;20075;-85
2023/05/08 00:20:52;;;;;;;17.63;15.27;;;;;;;13.45;71.37;101854.66;4821158;29;20378;-85
2023/05/08 00:23:20;;;;;;;19.02;15.85;;;;;;;13.41;71.69;101857.97;4809897;29;20030;-85
2023/05/08 00:25:46;;;;;;;19.13;15.68;;;;;;;13.37;71.82;101854.78;4823599;29;20373;-85
2023/05/08 00:28:12;;;;;;;19.25;16.05;;;;;;;13.32;72.55;101859.91;4819091;29;20071;-85
2023/05/08 00:30:37;;;;;;;17.55;15.43;;;;;;;13.31;71.95;101856.38;4824853;29;20158;-84
2023/05/08 00:33:03;;;;;;;20.25;14.65;;;;;;;13.27;72.67;101856.94;4819570;29;20057;-85
2023/05/08 00:35:28;;;;;;;17.88;15.85;;;;;;;13.23;72.79;101858.38;4820085;29;20030;-85
2023/05/08 00:37:54;;;;;;;18.40;15.43;;;;;;;13.24;72.37;101854.63;4815896;29;20373;-84
2023/05/08 00:40:19;;;;;;;17.75;15.85;;;;;;;13.22;72.42;101862.09;4820390;29;20032;-84
2023/05/08 00:42:44;;;;;;;19.15;15.05;;;;;;;13.19;72.71;101860.59;4824006;29;20034;-85
2023/05/08 00:45:10;;;;;;;18.13;15.45;;;;;;;13.15;72.80;101849.31;4820114;29;20095;-84
2023/05/08 00:47:35;;;;;;;20.55;15.88;;;;;;;13.15;72.78;101859.28;4822574;29;20467;-85
2023/05/08 00:50:01;;;;;;;17.70;15.32;;;;;;;13.12;72.63;101854.28;4814320;29;20042;-84
2023/05/08 00:52:27;;;;;;;19.15;15.07;;;;;;;13.16;71.93;101859.09;4819516;29;20031;-84
2023/05/08 00:54:52;;;;;;;17.35;15.05;;;;;;;13.14;71.95;101850.34;4807498;29;20114;-84
2023/05/08 00:57:17;;;;;;;18.15;15.18;;;;;;;13.10;72.41;101854.44;4811293;29;20033;-85
2023/05/08 00:59:44;;;;;;;17.70;15.45;;;;;;;13.04;73.00;101857.94;4822394;29;20038;-85
2023/05/08 01:02:09;;;;;;;17.27;14.55;;;;;;;12.99;73.01;101858.47;4806480;29;20054;-85
2023/05/08 01:04:35;;;;;;;19.65;15.95;;;;;;;12.97;72.89;101855.09;4816404;29;20035;-85
2023/05/08 01:07:00;;;;;;;18.95;14.82;;;;;;;12.97;73.34;101857.81;4826527;29;20378;-85
2023/05/08 01:09:26;;;;;;;18.30;15.68;;;;;;;12.97;72.64;101851.59;4821110;29;20050;-85
2023/05/08 01:12:02;;;;;;;17.25;15.38;;;;;;;12.96;72.54;101849.91;4823678;29;20030;-85
2023/05/08 01:14:46;;;;;;;;;;;;;;;12.91;72.82;101857.72;4831240;29;20498;-84
2023/05/08 01:17:35;;;;;;;20.33;15.23;;;;;;;12.85;73.33;101860.19;4817350;29;19925;-85
2023/05/08 01:20:07;;;;;;;18.92;15.77;;;;;;;12.81;72.89;101845.34;4789069;29;20399;-84
2023/05/08 01:22:50;;;;;;;21.38;16.27;;;;;;;12.78;72.82;101853.00;4821913;29;20479;-85
2023/05/08 01:25:27;;;;;;;18.20;15.75;;;;;;;12.80;73.01;101842.81;4823996;29;20478;-84
2023/05/08 01:27:56;;;;;;;19.85;16.20;;;;;;;12.79;73.26;101844.69;4833351;29;20027;-85
2023/05/08 01:30:33;;;;;;;18.08;15.43;;;;;;;12.81;73.14;101856.16;4817033;29;20042;-84
2023/05/08 01:33:01;;;;;;;17.90;15.20;;;;;;;12.79;72.95;101846.59;4823511;29;20113;-84
2023/05/08 01:35:42;;;;;;;18.30;15.75;;;;;;;12.76;73.67;101855.06;4817442;29;20333;-85
2023/05/08 01:38:30;;;;;;;19.38;16.00;;;;;;;12.71;73.08;101852.88;4800934;29;20033;-84
2023/05/08 01:41:15;;;;;;;19.90;15.77;;;;;;;12.66;73.72;101856.16;4829933;29;20057;-84
2023/05/08 01:43:49;;;;;;;18.88;16.05;;;;;;;12.67;73.69;101854.31;4814378;29;20586;-85
2023/05/08 01:46:19;;;;;;;17.33;14.55;;;;;;;12.66;73.77;101858.03;4805500;29;20040;-85
2023/05/08 01:49:11;;;;;;;16.83;14.95;;;;;;;12.65;73.18;101861.75;4794529;29;20026;-84
2023/05/08 01:51:44;;;;;;;18.48;15.60;;;;;;;12.59;73.71;101853.38;4810014;29;20151;-85
2023/05/08 01:54:13;;;;;;;16.90;14.77;;;;;;;12.58;73.31;101856.25;4817053;29;20142;-85
2023/05/08 01:59:17;;;;;;;18.92;15.63;;;;;;;12.52;73.65;101857.84;5680351;24;20062;-85
2023/05/08 02:01:42;;;;;;;17.52;15.63;;;;;;;12.51;73.67;101858.88;4810271;29;20427;-84
2023/05/08 02:04:09;;;;;;;17.42;15.43;;;;;;;12.49;73.74;101860.91;4839161;29;20045;-85
2023/05/08 02:06:34;;;;;;;17.60;15.70;;;;;;;12.45;74.09;101854.19;4814070;29;20437;-85
2023/05/08 02:09:00;;;;;;;20.85;16.30;;;;;;;12.46;74.27;101861.28;4808685;29;20038;-85
2023/05/08 02:11:25;;;;;;;16.98;14.65;;;;;;;12.44;74.19;101858.75;4814898;29;20063;-85
2023/05/08 02:13:50;;;;;;;19.90;15.90;;;;;;;12.44;73.81;101853.34;4811469;29;20034;-85
2023/05/08 02:16:16;;;;;;;16.25;14.45;;;;;;;12.45;73.60;101859.59;4841916;29;20037;-84
2023/05/08 02:18:43;;;;;;;16.83;14.57;;;;;;;12.38;73.99;101856.81;4809459;29;20032;-85
2023/05/08 02:21:09;;;;;;;18.38;15.30;;;;;;;12.36;74.17;101860.69;4818622;29;20098;-85
2023/05/08 02:23:36;;;;;;;17.05;14.50;;;;;;;12.34;74.12;101862.75;4808642;29;22533;-84
2023/05/08 02:26:01;;;;;;;17.80;15.90;;;;;;;12.35;74.10;101853.63;4823272;29;20045;-85
2023/05/08 02:34:29;;;;;;;17.38;15.02;;;;;;;12.13;74.38;101865.13;4815777;29;20100;-84
2023/05/08 02:36:54;;;;;;;16.45;14.15;;;;;;;12.11;74.91;101874.44;4828941;29;20824;-84
2023/05/08 02:39:55;;;;;;;16.92;14.65;;;;;;;12.05;74.84;101867.91;4818044;29;20105;-84
2023/05/08 02:42:20;;;;;;;17.80;15.18;;;;;;;12.00;75.16;101866.78;4824951;29;20036;-84
2023/05/08 02:44:51;;;;;;;18.40;15.13;;;;;;;11.98;75.30;101864.22;4824805;29;20035;-84
2023/05/08 02:47:59;;;;;;;17.50;15.25;;;;;;;11.96;74.79;101869.81;4831849;29;20428;-84
2023/05/08 02:50:43;;;;;;;17.33;14.45;;;;;;;11.91;75.01;101868.69;4806614;29;20070;-83
2023/05/08 02:53:11;;;;;;;16.85;14.77;;;;;;;11.89;75.14;101859.91;4828460;29;20034;-84
2023/05/08 02:55:47;;;;;;;16.35;14.60;;;;;;;11.82;75.09;101852.53;4828255;29;20068;-84
2023/05/08 02:58:12;;;;;;;;;;;;;;;11.68;76.02;101859.53;4824067;29;20125;-84
2023/05/08 03:01:10;;;;;;;18.02;14.73;;;;;;;11.58;76.07;101867.03;4831116;29;19924;-82
2023/05/08 03:03:38;;;;;;;19.95;15.48;;;;;;;11.52;76.32;101876.69;4817224;29;20046;-81
2023/05/08 03:06:03;;;;;;;16.67;14.20;;;;;;;11.47;76.50;101872.84;4804945;29;20123;-81
2023/05/08 03:08:33;;;;;;;18.63;15.63;;;;;;;11.48;76.82;101871.81;4807326;29;22156;-81
2023/05/08 03:11:00;;;;;;;19.25;15.77;;;;;;;11.45;77.19;101864.91;4831056;29;20041;-81
2023/05/08 03:13:27;;;;;;;16.95;14.30;;;;;;;11.46;76.90;101865.78;4818340;29;20075;-81
2023/05/08 03:16:03;;;;;;;15.23;13.20;;;;;;;11.47;77.31;101870.16;4821843;29;20041;-82
2023/05/08 03:18:37;;;;;;;18.17;15.43;;;;;;;11.46;77.25;101873.88;4820405;29;20057;-81
2023/05/08 03:21:02;;;;;;;20.70;16.30;;;;;;;11.48;77.11;101872.66;4812113;29;20076;-82
2023/05/08 03:23:28;;;;;;;19.15;15.88;;;;;;;11.51;77.55;101876.84;4832569;29;20574;-81
2023/05/08 03:25:54;;;;;;;16.38;14.30;;;;;;;11.53;77.19;101866.72;4833439;29;20117;-81
2023/05/08 03:28:20;;;;;;;16.45;14.65;;;;;;;11.56;77.04;101871.78;4828302;29;20046;-81
2023/05/08 03:30:46;;;;;;;19.48;16.40;;;;;;;11.62;77.15;101871.06;4834645;29;20079;-81
2023/05/08 03:33:11;;;;;;;18.05;15.75;;;;;;;11.64;77.01;101873.56;4839528;29;20038;-82
2023/05/08 03:35:37;;;;;;;18.13;16.05;;;;;;;11.62;76.68;101865.66;4817562;29;20042;-82
2023/05/08 03:38:07;;;;;;;18.98;15.10;;;;;;;11.63;76.79;101861.97;4826579;29;20030;-82
2023/05/08 03:40:35;;;;;;;18.10;15.95;;;;;;;11.62;76.79;101870.22;4815906;29;20034;-82
2023/05/08 03:43:01;;;;;;;18.92;16.20;;;;;;;11.63;76.87;101861.09;4816864;29;20030;-81
2023/05/08 03:45:26;;;;;;;20.25;17.10;;;;;;;11.62;76.96;101862.97;4799794;29;20094;-82
2023/05/08 03:47:52;;;;;;;17.45;14.68;;;;;;;11.66;76.46;101861.56;4815960;29;20035;-82
2023/05/08 03:50:18;;;;;;;20.42;16.67;;;;;;;11.62;76.68;101871.06;4807900;29;20045;-81
2023/05/08 03:52:43;;;;;;;18.15;16.25;;;;;;;11.64;76.78;101863.63;4827862;29;20026;-81
2023/05/08 03:55:09;;;;;;;19.67;15.38;;;;;;;11.64;76.37;101857.38;4811054;29;20046;-81
2023/05/08 03:57:47;;;;;;;19.48;16.10;;;;;;;11.63;76.40;101864.66;4821895;29;20039;-82
2023/05/08 04:00:43;;;;;;;18.38;16.15;;;;;;;11.62;76.48;101873.75;4826502;29;20121;-81
2023/05/08 04:03:17;;;;;;;18.98;16.17;;;;;;;11.60;76.67;101873.09;4780256;29;20039;-81
2023/05/08 04:05:49;;;;;;;20.75;17.10;;;;;;;11.62;76.58;101875.59;4819488;29;20042;-81
2023/05/08 04:08:24;;;;;;;18.88;16.05;;;;;;;11.62;76.68;101871.06;4816610;29;20062;-87
2023/05/08 04:11:16;;;;;;;19.08;16.50;;;;;;;11.62;76.60;101862.97;4803806;29;20050;-83
2023/05/08 04:13:53;;;;;;;20.27;15.70;;;;;;;11.59;77.11;101868.72;4844463;29;20053;-78
2023/05/08 04:16:24;;;;;;;19.73;15.98;;;;;;;11.59;76.80;101862.47;4807095;29;20030;-80
2023/05/08 04:18:49;;;;;;;20.40;17.35;;;;;;;11.59;76.92;101870.56;4835738;29;20034;-85
2023/05/08 04:21:19;;;;;;;20.08;16.95;;;;;;;11.59;76.98;101871.41;4820623;29;20091;-87
2023/05/08 04:23:56;;;;;;;20.30;15.75;;;;;;;11.58;77.15;101871.56;4820537;29;20066;-85
2023/05/08 04:26:23;;;;;;;18.35;15.95;;;;;;;11.57;77.11;101872.59;4830471;29;20582;-86
2023/05/08 04:28:54;;;;;;;17.98;14.88;;;;;;;11.58;77.01;101875.13;4820213;29;20166;-86
2023/05/08 04:31:19;;;;;;;18.88;16.88;;;;;;;11.59;76.93;101884.91;4819213;29;20054;-86
2023/05/08 04:33:45;;;;;;;17.60;15.25;;;;;;;11.60;76.58;101881.19;4826523;29;20041;-86
2023/05/08 04:36:12;;;;;;;18.63;16.15;;;;;;;11.59;76.85;101881.34;4810535;29;20041;-86
2023/05/08 04:38:37;;;;;;;19.50;16.10;;;;;;;11.63;76.48;101886.22;4836588;29;20081;-86
2023/05/08 04:41:07;;;;;;;17.95;15.57;;;;;;;11.61;76.65;101888.25;4833647;29;20129;-86
2023/05/08 04:43:34;;;;;;;18.20;15.85;;;;;;;11.60;76.52;101883.03;4830308;29;20126;-86
2023/05/08 04:45:59;;;;;;;18.92;15.85;;;;;;;11.63;76.91;101878.13;4833312;29;20038;-85
2023/05/08 04:48:30;;;;;;;18.00;15.63;;;;;;;11.68;76.52;101881.13;4828767;29;20029;-86
2023/05/08 04:50:58;;;;;;;17.83;15.73;;;;;;;11.68;75.88;101875.72;4821801;29;20041;-86
2023/05/08 04:53:26;;;;;;;17.42;14.10;;;;;;;11.74;75.42;101873.34;4833415;29;20570;-86
2023/05/08 04:55:51;;;;;;;18.52;15.60;;;;;;;11.68;75.55;101881.13;4829001;29;20037;-90
2023/05/08 04:58:17;;;;;;;18.83;15.48;;;;;;;11.77;75.30;101876.50;4824489;29;20030;-91
2023/05/08 05:00:43;;;;;;;16.95;14.50;;;;;;;11.74;75.22;101884.13;4822440;29;20045;-89
2023/05/08 05:03:10;;;;;;;17.33;14.95;;;;;;;11.78;75.22;101890.84;4829274;29;20058;-90
2023/05/08 05:05:37;;;;;;;18.88;13.95;;;;;;;11.82;75.41;101894.88;4835770;29;20037;-91
2023/05/08 05:08:03;;;;;;;15.93;13.95;;;;;;;11.86;75.27;101893.47;4824096;29;20038;-91
2023/05/08 05:10:28;;;;;;;16.15;14.32;;;;;;;11.94;74.59;101895.28;4821539;29;20042;-91
2023/05/08 05:12:55;;;;;;;15.18;13.45;;;;;;;11.90;74.62;101884.00;4825683;29;20391;-91
2023/05/08 05:15:21;;;;;;;15.65;13.27;;;;;;;11.90;74.29;101892.09;4835446;29;20121;-90
2023/05/08 05:17:57;;;;;;;17.00;14.32;;;;;;;11.83;74.53;101899.22;4826142;29;20037;-89
2023/05/08 05:20:34;;;;;;;16.83;13.93;;;;;;;11.76;74.84;101895.59;4839117;29;20027;-90
2023/05/08 05:23:20;;;;;;;18.13;14.07;;;;;;;11.74;75.12;101889.53;4834313;29;20046;-91
2023/05/08 05:25:45;;;;;;;16.77;14.73;;;;;;;11.59;75.02;101892.13;4820322;29;20050;-90
2023/05/08 05:28:19;;;;;;;17.02;14.02;;;;;;;11.60;75.13;101888.44;4840273;29;20116;-91
2023/05/08 05:30:48;;;;;;;15.93;13.73;;;;;;;11.61;75.55;101895.50;4849143;29;20050;-91
2023/05/08 05:33:13;;;;;;;17.55;14.60;;;;;;;11.74;75.48;101900.31;4832683;29;20105;-90
2023/05/08 05:35:45;;;;;;;15.50;13.63;;;;;;;11.92;74.54;101895.47;4828365;29;20510;-91
2023/05/08 05:38:10;;;;;;;19.20;13.48;;;;;;;12.16;73.22;101904.44;4836263;29;20048;-90
2023/05/08 05:40:35;;;;;;;14.85;13.35;;;;;;;12.51;72.45;101912.03;4843566;29;20030;-90
2023/05/08 05:43:01;;;;;;;15.15;13.63;;;;;;;12.63;71.75;101904.31;4831548;29;20042;-91
2023/05/08 05:45:26;;;;;;;16.25;13.98;;;;;;;13.02;70.48;101919.44;4844626;29;20035;-90
2023/05/08 05:47:52;;;;;;;16.90;14.30;;;;;;;13.21;69.85;101922.59;4839293;29;20178;-90
2023/05/08 05:50:18;;;;;;;14.73;13.18;;;;;;;13.35;69.23;101921.75;4832508;29;20046;-91
2023/05/08 05:52:43;;;;;;;14.27;12.88;;;;;;;13.68;68.50;101918.59;4820621;29;20065;-86
2023/05/08 05:55:09;;;;;;;14.45;12.95;;;;;;;13.80;67.73;101911.66;4831909;29;20030;-84
2023/05/08 05:57:35;;;;;;;15.77;13.02;;;;;;;13.83;68.03;101921.28;4835088;29;20034;-85
2023/05/08 06:00:00;;;;;;;16.58;13.23;;;;;;;14.03;67.85;101924.16;4828958;29;20036;-83
2023/05/08 06:02:26;;;;;;;15.10;13.15;;;;;;;14.23;66.79;101926.22;4840054;29;20048;-84
2023/05/08 06:04:51;;;;;;;14.30;12.82;;;;;;;14.80;65.27;101937.13;4825868;29;20031;-84
2023/05/08 06:07:17;;;;;;;15.40;12.85;;;;;;;15.45;63.76;101943.06;4827549;29;20033;-83
2023/05/08 06:09:42;;;;;;;14.00;12.70;;;;;;;16.49;60.52;101937.44;4826236;29;20034;-84
2023/05/08 06:12:08;;;;;;;15.50;13.85;;;;;;;17.36;57.04;101936.41;4826968;29;20027;-84
2023/05/08 06:14:33;;;;;;;13.32;12.02;;;;;;;17.90;56.38;101932.59;4840694;29;20030;-81
2023/05/08 06:17:00;;;;;;;14.00;12.63;;;;;;;17.86;55.47;101937.63;4836300;29;20130;-82
2023/05/08 06:19:27;;;;;;;12.75;11.55;;;;;;;18.10;55.21;101935.19;4826021;29;20058;-85
2023/05/08 06:21:52;;;;;;;14.30;13.00;;;;;;;17.23;56.98;101933.75;4824582;29;20030;-84
2023/05/08 06:24:18;;;;;;;12.88;11.68;;;;;;;17.52;57.19;101934.25;4822747;29;20035;-84
2023/05/08 06:26:45;;;;;;;13.93;12.57;;;;;;;17.35;57.75;101926.56;4829377;29;20174;-84
2023/05/08 06:29:10;;;;;;;15.05;12.65;;;;;;;17.12;58.70;101938.78;4831973;29;20034;-85
2023/05/08 06:31:36;;;;;;;14.50;13.10;;;;;;;17.11;58.54;101931.72;4829688;29;20416;-86
2023/05/08 06:34:01;;;;;;;14.60;13.13;;;;;;;17.26;59.06;101936.06;4831970;29;20038;-83
2023/05/08 06:36:27;;;;;;;14.43;12.93;;;;;;;17.06;58.69;101930.66;4821443;29;20035;-82
2023/05/08 06:38:52;;;;;;;14.90;13.20;;;;;;;17.20;59.49;101935.03;4821512;29;20026;-83
2023/05/08 06:41:18;;;;;;;13.50;12.15;;;;;;;17.49;58.97;101938.25;4819220;29;20593;-84
2023/05/08 06:43:43;;;;;;;13.80;12.45;;;;;;;17.51;58.49;101933.44;4823367;29;20033;-83
2023/05/08 06:46:08;;;;;;;13.77;12.45;;;;;;;17.71;58.10;101936.03;4808492;29;20479;-83
2023/05/08 06:48:34;;;;;;;14.50;13.00;;;;;;;18.32;56.13;101936.50;4825198;29;20159;-85
2023/05/08 06:50:59;;;;;;;14.35;12.95;;;;;;;19.06;54.29;101937.69;4826120;29;20034;-85
2023/05/08 06:53:25;;;;;;;13.75;12.45;;;;;;;19.42;54.35;101940.63;4824548;29;20090;-84
2023/05/08 06:55:50;;;;;;;15.00;13.40;;;;;;;19.42;54.57;101938.69;4823481;29;20110;-83
2023/05/08 06:58:16;;;;;;;15.15;13.55;;;;;;;19.19;54.60;101936.69;4817927;29;20022;-84
2023/05/08 07:00:41;;;;;;;14.10;12.60;;;;;;;19.50;55.18;101943.03;4822953;29;20045;-82
2023/05/08 07:03:06;;;;;;;16.10;13.40;;;;;;;19.33;55.51;101934.63;4816703;29;20035;-84
2023/05/08 07:05:32;;;;;;;14.52;13.13;;;;;;;19.29;55.73;101925.22;4821510;29;20457;-84
2023/05/08 07:07:57;;;;;;;13.52;11.23;;;;;;;20.09;53.38;101943.28;4817994;29;20035;-84
2023/05/08 07:10:22;;;;;;;13.13;11.95;;;;;;;20.30;53.04;101938.28;4835815;29;20537;-84
2023/05/08 07:12:51;;;;;;;14.80;13.25;;;;;;;19.76;55.46;101941.84;4823561;29;20028;-84
2023/05/08 07:15:16;;;;;;;14.25;12.32;;;;;;;20.58;52.29;101936.78;4811753;29;20030;-84
2023/05/08 07:17:42;;;;;;;14.43;13.00;;;;;;;19.58;56.06;101941.88;4816517;29;20495;-84
2023/05/08 07:20:08;;;;;;;13.05;11.90;;;;;;;20.06;55.05;101941.00;4808539;29;20080;-84
2023/05/08 07:22:33;;;;;;;14.05;12.60;;;;;;;19.70;56.11;101948.22;4824037;29;20034;-84
2023/05/08 07:24:59;;;;;;;14.60;13.20;;;;;;;18.98;58.95;101941.53;4824103;29;20042;-84
2023/05/08 07:27:24;;;;;;;16.02;14.27;;;;;;;19.15;58.46;101944.50;4824628;29;20038;-84
2023/05/08 07:29:49;;;;;;;14.20;12.60;;;;;;;19.43;57.99;101942.28;4823430;29;20408;-84
2023/05/08 07:32:15;;;;;;;14.35;12.13;;;;;;;20.04;56.28;101954.06;4822384;29;20098;-84
2023/05/08 07:34:40;;;;;;;15.00;11.45;;;;;;;20.79;54.44;101945.50;4810885;29;20482;-84
2023/05/08 07:37:06;;;;;;;13.18;11.88;;;;;;;21.05;54.31;101944.16;4821855;29;20030;-82
2023/05/08 07:39:31;;;;;;;12.98;11.65;;;;;;;20.55;55.39;101948.19;4820675;29;20053;-83
2023/05/08 07:41:57;;;;;;;14.40;11.15;;;;;;;21.41;52.65;101942.16;4814076;29;20031;-83
2023/05/08 07:44:22;;;;;;;11.75;10.55;;;;;;;21.93;51.82;101938.47;4811777;29;20037;-83
2023/05/08 07:46:48;;;;;;;13.77;12.57;;;;;;;22.14;51.48;101938.81;4821685;29;20129;-83
2023/05/08 07:49:13;;;;;;;13.70;12.10;;;;;;;21.55;52.73;101941.84;4821639;29;20444;-84
2023/05/08 07:51:39;;;;;;;13.18;11.98;;;;;;;21.54;53.21;101935.53;4820315;29;20387;-83
2023/05/08 07:54:04;;;;;;;13.15;11.88;;;;;;;22.40;50.73;101936.50;4822830;29;20030;-84
2023/05/08 07:56:30;;;;;;;12.85;11.65;;;;;;;22.70;49.87;101935.31;4821714;29;20491;-83
2023/05/08 07:58:55;;;;;;;13.70;12.30;;;;;;;22.28;51.89;101931.09;4823468;29;20448;-83
2023/05/08 08:01:21;;;;;;;12.63;11.40;;;;;;;23.52;48.52;101935.56;4810303;29;20466;-83
2023/05/08 08:03:46;;;;;;;11.07;9.95;;;;;;;23.47;48.72;101938.25;4821659;29;20038;-82
2023/05/08 08:06:12;;;;;;;11.00;10.00;;;;;;;23.79;48.59;101939.41;4823620;29;20494;-84
2023/05/08 08:08:38;;;;;;;11.63;10.45;;;;;;;24.68;46.12;101935.19;4821835;29;20023;-83
2023/05/08 08:11:03;;;;;;;10.30;9.30;;;;;;;24.54;45.87;101933.97;4811684;29;20106;-84
2023/05/08 08:13:28;;;;;;;10.85;9.52;;;;;;;25.58;44.45;101927.03;4811889;29;20533;-84
2023/05/08 08:15:54;;;;;;;11.93;10.80;;;;;;;25.95;42.61;101923.22;4817675;29;21879;-83
2023/05/08 08:21:03;;;;;;;12.27;11.07;;;;;;;25.04;45.13;101923.53;4980932;24;20070;-84
2023/05/08 08:26:04;;;;;;;14.00;11.77;;;;;;;24.95;45.65;101933.41;5384232;24;20054;-84
2023/05/08 08:28:30;;;;;;;14.10;12.70;;;;;;;24.42;47.13;101930.59;4824134;29;20548;-84
2023/05/08 08:30:55;;;;;;;16.13;14.50;;;;;;;23.16;49.94;101930.44;4826837;29;20056;-84
2023/05/08 08:33:20;;;;;;;14.27;12.88;;;;;;;23.19;50.83;101931.00;4823562;29;20037;-84
2023/05/08 08:35:46;;;;;;;15.30;13.80;;;;;;;23.35;49.82;101919.16;4823179;29;20046;-84
2023/05/08 08:38:11;;;;;;;14.50;13.00;;;;;;;22.49;52.36;101924.03;4814814;29;20056;-83
2023/05/08 08:40:40;;;;;;;17.38;14.40;;;;;;;23.24;50.34;101925.63;4826687;29;20038;-83
2023/05/08 08:43:08;;;;;;;14.13;12.73;;;;;;;23.50;50.82;101925.91;4821901;29;20030;-84
2023/05/08 08:45:35;;;;;;;15.52;14.07;;;;;;;23.29;50.43;101925.69;4821715;29;20103;-84
2023/05/08 08:48:01;;;;;;;15.60;14.05;;;;;;;23.89;49.62;101928.47;4808336;29;20177;-84
2023/05/08 08:50:34;;;;;;;17.08;15.25;;;;;;;23.35;50.69;101929.31;4816843;29;20030;-84
2023/05/08 08:53:18;;;;;;;20.10;18.13;;;;;;;23.01;51.17;101924.75;4790171;29;20066;-84
2023/05/08 08:55:45;;;;;;;18.73;16.83;;;;;;;22.98;52.11;101930.75;4803862;29;20043;-83
2023/05/08 08:58:20;;;;;;;21.10;18.25;;;;;;;22.43;52.95;101936.00;4828758;29;20034;-84
2023/05/08 09:00:46;;;;;;;18.30;16.42;;;;;;;22.45;53.89;101931.09;4808628;29;20510;-83
2023/05/08 09:03:11;;;;;;;23.25;17.83;;;;;;;21.45;56.65;101926.88;4805768;29;20089;-84
2023/05/08 09:05:37;;;;;;;21.23;17.60;;;;;;;20.88;58.47;101928.47;4805178;29;20042;-83
2023/05/08 09:08:03;;;;;;;21.38;17.00;;;;;;;21.57;57.34;101928.75;4819452;29;20061;-83
2023/05/08 09:10:28;;;;;;;21.95;19.10;;;;;;;21.59;56.77;101924.66;4901705;24;20062;-83
2023/05/08 09:12:54;;;;;;;20.80;17.92;;;;;;;22.26;54.89;101931.34;4807076;29;20524;-82
2023/05/08 09:15:19;;;;;;;22.38;19.98;;;;;;;21.38;57.33;101925.34;4801470;29;20492;-83
2023/05/08 09:17:44;;;;;;;24.73;20.77;;;;;;;20.94;58.59;101926.66;4798393;29;20034;-78
2023/05/08 09:20:10;;;;;;;20.10;18.00;;;;;;;21.56;57.63;101925.16;4820487;29;20034;-84
2023/05/08 09:22:36;;;;;;;22.33;19.92;;;;;;;21.87;55.81;101927.66;4795863;29;20447;-84
2023/05/08 09:25:02;;;;;;;20.83;18.63;;;;;;;21.86;56.57;101921.38;4802086;29;20452;-84
2023/05/08 09:27:28;;;;;;;22.50;20.20;;;;;;;22.39;54.46;101923.88;4806413;29;20102;-84
2023/05/08 09:30:04;;;;;;;21.38;19.20;;;;;;;22.48;54.47;101930.59;4815732;29;20126;-89
2023/05/08 09:32:29;;;;;;;;;;;;;;;22.51;54.60;101930.13;4816379;29;20038;-86
2023/05/08 09:34:55;;;;;;;22.85;20.48;;;;;;;23.54;51.66;101925.13;4822471;29;19917;-84
2023/05/08 09:37:26;;;;;;;23.27;20.77;;;;;;;23.65;51.91;101920.56;4805048;29;20125;-82
2023/05/08 09:39:52;;;;;;;22.33;19.67;;;;;;;24.73;49.02;101914.28;4815097;29;20062;-82
2023/05/08 09:42:18;;;;;;;20.80;18.42;;;;;;;25.89;45.84;101918.78;4815796;29;20030;-81
2023/05/08 09:44:50;;;;;;;22.15;19.83;;;;;;;26.56;44.16;101915.16;4821050;29;20403;-82
2023/05/08 09:47:22;;;;;;;20.33;18.17;;;;;;;26.77;44.27;101916.78;4808522;29;20040;-81
2023/05/08 09:50:09;;;;;;;19.10;17.17;;;;;;;27.66;41.54;101918.03;4828646;29;20037;-82
2023/05/08 09:52:36;;;;;;;19.30;17.40;;;;;;;26.92;43.00;101913.13;4810072;29;20376;-82
2023/05/08 09:55:09;;;;;;;20.15;18.25;;;;;;;27.13;42.29;101915.81;4820621;29;20171;-82
2023/05/08 09:57:37;;;;;;;15.98;14.40;;;;;;;28.50;39.95;101918.16;4821546;29;20035;-82
2023/05/08 10:00:11;;;;;;;15.10;13.80;;;;;;;29.36;36.81;101914.63;4820381;29;20087;-81
2023/05/08 10:02:37;;;;;;;15.53;14.03;;;;;;;28.98;38.39;101917.34;4810749;29;20129;-82
2023/05/08 10:05:04;;;;;;;15.15;13.57;;;;;;;28.13;39.60;101918.53;4823212;29;20047;-81
2023/05/08 10:07:34;;;;;;;16.98;15.45;;;;;;;26.21;43.26;101911.38;4819139;29;20107;-81
2023/05/08 10:10:01;;;;;;;14.68;13.38;;;;;;;26.63;42.78;101910.19;4814156;29;20155;-81
2023/05/08 10:12:27;;;;;;;17.27;15.77;;;;;;;25.53;44.83;101903.03;4823840;29;20033;-81
2023/05/08 10:14:52;;;;;;;15.02;13.57;;;;;;;26.26;44.18;101906.66;4821435;29;20362;-81
2023/05/08 10:17:22;;;;;;;16.02;14.52;;;;;;;27.12;42.29;101911.41;4827974;29;20125;-80
2023/05/08 10:19:47;;;;;;;14.25;12.93;;;;;;;27.59;41.29;101909.22;4827182;29;20175;-80
2023/05/08 10:22:13;;;;;;;14.10;12.57;;;;;;;27.41;40.32;101907.09;4834059;29;20028;-80
2023/05/08 10:24:40;;;;;;;9.80;8.95;;;;;;;28.04;38.58;101911.09;4823040;29;20077;-81
2023/05/08 10:27:30;;;;;;;10.45;9.38;;;;;;;27.95;38.03;101911.72;4809455;29;20033;-82
2023/05/08 10:30:00;;;;;;;9.63;8.73;;;;;;;28.65;37.01;101914.38;4820279;29;20042;-81
2023/05/08 10:32:28;;;;;;;11.82;10.80;;;;;;;28.34;37.63;101907.22;4838185;29;20038;-83
2023/05/08 10:34:55;;;;;;;9.82;8.82;;;;;;;27.91;38.75;101904.28;4807493;29;20034;-82
2023/05/08 10:37:21;;;;;;;9.23;8.38;;;;;;;28.41;37.54;101906.91;4838029;29;20026;-79
2023/05/08 10:39:46;;;;;;;8.65;7.90;;;;;;;28.24;36.40;101908.16;4814274;29;20034;-82
2023/05/08 10:42:19;;;;;;;9.30;8.50;;;;;;;28.15;36.83;101898.84;4822171;29;20065;-83
2023/05/08 10:44:45;;;;;;;9.82;8.98;;;;;;;27.94;37.57;101899.00;4823012;29;20047;-83
2023/05/08 10:47:20;;;;;;;9.57;8.77;;;;;;;28.02;36.98;101903.06;4836991;29;20125;-82
2023/05/08 10:50:03;;;;;;;9.20;8.50;;;;;;;27.99;37.68;101900.88;4884013;24;20553;-82
2023/05/08 10:52:48;;;;;;;9.90;9.00;;;;;;;27.39;39.71;101888.84;4970080;24;20120;-82
2023/05/08 10:55:35;;;;;;;8.93;8.02;;;;;;;27.73;37.50;101894.72;4836268;29;20049;-82
2023/05/08 10:58:22;;;;;;;11.20;10.20;;;;;;;27.62;39.00;101892.06;4837196;29;20074;-82
2023/05/08 11:01:24;;;;;;;10.38;9.48;;;;;;;27.96;37.95;101899.53;4837190;29;20029;-83
2023/05/08 11:03:54;;;;;;;9.98;9.18;;;;;;;28.21;38.00;101897.69;4837323;29;20038;-85
2023/05/08 11:19:38;;;;;;;9.95;8.30;;;;;;;27.57;37.15;101886.56;5575388;24;19924;-83
2023/05/08 11:24:53;;;;;;;8.05;7.35;;;;;;;26.96;38.08;101880.25;5009874;24;20090;-82
2023/05/08 11:31:47;;;;;;;;;;;;;;;;;;;;;
2023/05/08 11:43:31;;;;;;;21.08;19.05;;;;;;;25.54;46.20;101868.00;5152323;24;20130;-82
2023/05/08 11:49:21;;;;;;;24.58;22.20;;;;;;;24.50;48.65;101864.84;4840161;29;20057;-82
2023/05/08 11:51:53;;;;;;;24.80;22.25;;;;;;;24.28;48.97;101867.75;4830416;29;20029;-84
2023/05/08 11:54:30;;;;;;;22.77;20.48;;;;;;;24.24;49.23;101866.63;4835801;29;20408;-84
2023/05/08 11:56:58;;;;;;;23.17;20.85;;;;;;;23.81;50.40;101866.56;4842368;29;20033;-84
2023/05/08 11:59:23;;;;;;;21.80;19.70;;;;;;;23.52;50.63;101861.34;4827991;29;20030;-84
2023/05/08 12:01:49;;;;;;;21.42;19.35;;;;;;;23.03;51.64;101856.69;4836291;29;20056;-84
2023/05/08 12:04:15;;;;;;;23.38;20.98;;;;;;;23.44;51.08;101856.31;4843025;29;20097;-84
2023/05/08 12:07:33;;;;;;;24.35;21.95;;;;;;;22.46;53.56;101860.63;4841457;29;20116;-83